長崎空港の過去48時間の天気

長崎空港 (Nagasaki)

現在時刻: 5/22 07:17 JST (5/21 22:17 UTC) 以下の時間は現地時間です。

過去48時間のMETAR気象情報
時間 風向 風速(m/s) 視程 気温(℃) 湿度(%) 気圧(hPa) 天気現象
22 07:00 不定 1 10km以上 19 83 1014
22 06:10 南南東 3 10km以上 18 88 1014
RJFU 212200Z VRB02KT CAVOK 19/16 Q1014
RJFU 212110Z 15005KT 9999 FEW030 SCT070 BKN/// 18/16 Q1014 RMK 1CU030 3AC070 A2994